createdAt,value
2023-05-09T00:01:50.165Z,1.00
2023-05-09T00:04:16.795Z,1.00
2023-05-09T00:06:45.810Z,1.10
2023-05-09T00:09:12.780Z,0.90
2023-05-09T00:11:39.354Z,1.00
2023-05-09T00:14:06.671Z,1.02
2023-05-09T00:16:38.546Z,1.00
2023-05-09T00:21:31.959Z,1.23
2023-05-09T00:23:59.021Z,1.00
2023-05-09T00:26:26.272Z,0.82
2023-05-09T00:28:53.124Z,0.80
2023-05-09T00:31:19.739Z,0.88
2023-05-09T00:33:46.341Z,0.90
2023-05-09T00:36:31.995Z,0.82
2023-05-09T00:38:58.594Z,0.70
2023-05-09T00:41:25.623Z,0.70
2023-05-09T00:43:52.254Z,0.85
2023-05-09T00:46:19.100Z,0.90
2023-05-09T00:48:46.524Z,0.70
2023-05-09T00:51:13.138Z,0.90
2023-05-09T00:53:39.732Z,0.73
2023-05-09T00:56:08.222Z,0.70
2023-05-09T00:58:34.872Z,0.90
2023-05-09T01:01:03.740Z,0.90
2023-05-09T01:03:30.490Z,0.70
2023-05-09T01:05:58.480Z,0.90
2023-05-09T01:08:25.146Z,0.80
2023-05-09T01:10:51.713Z,0.80
2023-05-09T01:13:18.433Z,0.88
2023-05-09T01:15:45.289Z,0.80
2023-05-09T01:18:12.513Z,0.65
2023-05-09T01:20:39.392Z,0.73
2023-05-09T01:23:06.277Z,0.70
2023-05-09T01:25:34.226Z,0.70
2023-05-09T01:28:01.117Z,0.95
2023-05-09T01:30:27.746Z,0.70
2023-05-09T01:32:54.422Z,0.60
2023-05-09T01:35:21.162Z,0.70
2023-05-09T01:37:47.770Z,0.80
2023-05-09T01:40:14.350Z,0.70
2023-05-09T01:42:41.033Z,0.80
2023-05-09T01:45:07.863Z,0.77
2023-05-09T01:47:54.825Z,0.80
2023-05-09T01:50:21.483Z,0.80
2023-05-09T01:52:48.761Z,0.80
2023-05-09T01:55:15.544Z,0.80
2023-05-09T01:57:44.298Z,0.80
2023-05-09T02:00:12.942Z,1.00
2023-05-09T02:02:39.644Z,0.80
2023-05-09T02:05:06.409Z,0.93
2023-05-09T02:07:53.110Z,0.95
2023-05-09T02:10:20.765Z,1.17
2023-05-09T02:12:47.373Z,1.00
2023-05-09T02:15:14.177Z,0.80
2023-05-09T02:17:42.632Z,0.90
2023-05-09T02:20:13.349Z,1.00
2023-05-09T02:22:39.947Z,1.00
2023-05-09T02:25:07.325Z,1.02
2023-05-09T02:27:37.154Z,1.10
2023-05-09T02:30:04.113Z,0.93
2023-05-09T02:32:30.764Z,0.90
2023-05-09T02:34:57.393Z,0.90
2023-05-09T02:37:24.200Z,0.90
2023-05-09T02:39:50.837Z,0.80
2023-05-09T02:42:17.456Z,0.80
2023-05-09T02:44:44.240Z,0.80
2023-05-09T02:47:10.987Z,0.80
2023-05-09T02:49:37.599Z,0.90
2023-05-09T02:52:05.117Z,2.80
2023-05-09T02:54:31.712Z,0.98
2023-05-09T02:56:59.249Z,1.00
2023-05-09T02:59:25.846Z,1.02
2023-05-09T03:01:52.893Z,1.00
2023-05-09T03:04:19.860Z,1.08
2023-05-09T03:06:46.989Z,1.10
2023-05-09T03:09:13.573Z,1.02
2023-05-09T03:11:40.230Z,1.13
2023-05-09T03:14:08.484Z,1.10
2023-05-09T03:16:35.676Z,1.10
2023-05-09T03:19:03.466Z,1.10
2023-05-09T03:21:30.167Z,1.10
2023-05-09T03:23:56.803Z,1.02
2023-05-09T03:26:43.429Z,1.13
2023-05-09T03:29:10.731Z,0.95
2023-05-09T03:31:38.533Z,1.00
2023-05-09T03:34:05.411Z,1.10
2023-05-09T03:36:32.485Z,1.13
2023-05-09T03:39:00.029Z,1.10
2023-05-09T03:41:27.153Z,0.90
2023-05-09T03:43:54.298Z,1.10
2023-05-09T03:46:21.057Z,0.88
2023-05-09T03:48:48.986Z,1.00
2023-05-09T03:51:15.764Z,1.00
2023-05-09T03:53:44.388Z,1.00
2023-05-09T03:56:11.179Z,1.00
2023-05-09T03:58:45.094Z,1.10
2023-05-09T04:01:11.971Z,1.10
2023-05-09T04:03:39.180Z,1.20
2023-05-09T04:06:26.447Z,1.10
2023-05-09T04:08:53.101Z,1.13
2023-05-09T04:11:19.719Z,1.17
2023-05-09T04:13:47.670Z,1.20
2023-05-09T04:16:32.986Z,1.23
2023-05-09T04:18:59.649Z,1.40
2023-05-09T04:21:26.221Z,1.20
2023-05-09T04:23:55.981Z,1.23
2023-05-09T04:26:32.968Z,1.42
2023-05-09T04:29:00.310Z,1.42
2023-05-09T04:31:27.688Z,1.40
2023-05-09T04:33:55.570Z,1.50
2023-05-09T04:36:24.027Z,1.40
2023-05-09T04:38:51.272Z,1.50
2023-05-09T04:41:23.000Z,1.73
2023-05-09T04:43:49.826Z,1.80
2023-05-09T04:49:04.335Z,1.55
2023-05-09T04:51:31.070Z,1.80
2023-05-09T04:53:57.712Z,1.90
2023-05-09T04:56:30.188Z,2.10
2023-05-09T04:58:57.207Z,2.08
2023-05-09T05:01:23.868Z,1.65
2023-05-09T05:03:50.790Z,1.92
2023-05-09T05:06:18.721Z,2.58
2023-05-09T05:08:45.448Z,2.28
2023-05-09T05:11:13.546Z,2.00
2023-05-09T05:13:40.321Z,2.42
2023-05-09T05:19:10.569Z,2.40
2023-05-09T05:21:39.702Z,2.58
2023-05-09T05:24:06.357Z,2.95
2023-05-09T05:26:34.350Z,2.53
2023-05-09T05:29:01.857Z,2.40
2023-05-09T05:31:28.492Z,2.80
2023-05-09T05:33:55.202Z,2.97
2023-05-09T05:36:42.289Z,2.58
2023-05-09T05:39:09.159Z,2.72
2023-05-09T05:41:35.817Z,2.50
2023-05-09T05:44:04.625Z,3.30
2023-05-09T05:49:35.765Z,2.88
2023-05-09T05:52:02.929Z,3.10
2023-05-09T05:54:29.975Z,2.97
2023-05-09T05:56:58.846Z,3.33
2023-05-09T05:59:25.581Z,3.17
2023-05-09T06:01:52.666Z,2.92
2023-05-09T06:04:19.693Z,3.25
2023-05-09T06:06:47.439Z,3.15
2023-05-09T06:09:14.186Z,3.00
2023-05-09T06:11:41.024Z,2.80
2023-05-09T06:14:07.642Z,3.78
2023-05-09T06:16:54.758Z,3.72
2023-05-09T06:19:21.497Z,3.40
2023-05-09T06:21:48.101Z,2.53
2023-05-09T06:24:27.467Z,2.83
2023-05-09T06:27:03.457Z,2.88
2023-05-09T06:29:30.085Z,2.97
2023-05-09T06:31:56.808Z,3.20
2023-05-09T06:34:23.568Z,3.70
2023-05-09T06:36:50.483Z,3.38
2023-05-09T06:39:17.056Z,3.75
2023-05-09T06:41:43.663Z,3.65
2023-05-09T06:44:10.398Z,3.40
2023-05-09T06:46:55.844Z,3.90
2023-05-09T06:49:22.481Z,3.33
2023-05-09T06:51:49.076Z,3.10
2023-05-09T06:54:17.171Z,3.05
2023-05-09T06:57:02.885Z,3.47
2023-05-09T06:59:29.552Z,3.78
2023-05-09T07:01:56.267Z,3.00
2023-05-09T07:04:22.936Z,3.90
2023-05-09T07:06:51.901Z,3.80
2023-05-09T07:12:01.745Z,3.40
2023-05-09T07:14:28.344Z,3.22
2023-05-09T07:17:05.162Z,3.80
2023-05-09T07:19:41.640Z,3.55
2023-05-09T07:22:08.299Z,3.30
2023-05-09T07:24:34.924Z,3.63
2023-05-09T07:27:21.237Z,3.17
2023-05-09T07:29:49.189Z,3.30
2023-05-09T07:32:15.882Z,3.78
2023-05-09T07:34:42.540Z,3.50
2023-05-09T07:37:09.298Z,3.60
2023-05-09T07:39:35.883Z,3.35
2023-05-09T07:42:02.563Z,2.92
2023-05-09T07:44:29.237Z,3.08
2023-05-09T07:46:56.089Z,3.35
2023-05-09T07:49:22.686Z,3.70
2023-05-09T07:51:49.276Z,3.67
2023-05-09T07:54:15.919Z,2.95
2023-05-09T07:57:01.374Z,3.50
2023-05-09T07:59:28.074Z,3.33
2023-05-09T08:01:54.958Z,3.90
2023-05-09T08:04:21.635Z,3.40
2023-05-09T08:06:51.451Z,4.10
2023-05-09T08:09:18.666Z,4.05
2023-05-09T08:11:45.281Z,4.38
2023-05-09T08:14:12.787Z,3.75
2023-05-09T08:16:43.334Z,3.60
2023-05-09T08:19:10.066Z,4.07
2023-05-09T08:21:36.696Z,3.78
2023-05-09T08:24:03.434Z,3.70
2023-05-09T08:26:30.310Z,3.60
2023-05-09T08:28:57.085Z,3.15
2023-05-09T08:31:23.843Z,3.10
2023-05-09T08:33:50.620Z,2.50
2023-05-09T08:36:17.367Z,2.88
2023-05-09T08:38:44.056Z,2.90
2023-05-09T08:41:10.724Z,3.22
2023-05-09T08:43:39.947Z,3.25
2023-05-09T08:46:07.101Z,3.20
2023-05-09T08:48:35.849Z,3.17
2023-05-09T08:51:02.618Z,3.00
2023-05-09T08:53:29.331Z,2.63
2023-05-09T08:56:15.018Z,2.83
2023-05-09T08:58:41.654Z,2.70
2023-05-09T09:01:08.907Z,2.33
2023-05-09T09:03:35.602Z,2.67
2023-05-09T09:06:03.486Z,2.15
2023-05-09T09:08:30.153Z,2.25
2023-05-09T09:10:56.779Z,2.55
2023-05-09T09:13:23.399Z,2.35
2023-05-09T09:15:52.198Z,2.28
2023-05-09T09:18:19.786Z,2.20
2023-05-09T09:20:46.615Z,2.22
2023-05-09T09:23:13.383Z,2.20
2023-05-09T09:25:40.114Z,2.00
2023-05-09T09:28:06.793Z,2.00
2023-05-09T09:30:33.536Z,1.70
2023-05-09T09:33:00.566Z,1.60
2023-05-09T09:35:48.595Z,1.70
2023-05-09T09:38:15.264Z,1.95
2023-05-09T09:40:41.863Z,1.70
2023-05-09T09:43:08.747Z,2.10
2023-05-09T09:45:54.532Z,2.00
2023-05-09T09:48:21.477Z,2.28
2023-05-09T09:50:48.357Z,2.50
2023-05-09T09:53:14.980Z,2.22
2023-05-09T09:55:45.960Z,2.03
2023-05-09T09:58:12.617Z,1.88
2023-05-09T10:00:39.277Z,2.20
2023-05-09T10:03:06.131Z,1.92
2023-05-09T10:05:38.715Z,2.28
2023-05-09T10:08:07.514Z,2.55
2023-05-09T10:10:34.217Z,2.45
2023-05-09T10:13:00.879Z,2.25
2023-05-09T10:15:28.721Z,2.28
2023-05-09T10:17:56.857Z,2.17
2023-05-09T10:20:23.695Z,1.83
2023-05-09T10:22:50.414Z,2.10
2023-05-09T10:25:17.255Z,1.80
2023-05-09T10:27:45.485Z,1.70
2023-05-09T10:30:12.076Z,2.20
2023-05-09T10:32:38.772Z,2.55
2023-05-09T10:35:05.887Z,1.60
2023-05-09T10:37:33.403Z,1.75
2023-05-09T10:40:00.206Z,2.08
2023-05-09T10:42:28.323Z,1.95
2023-05-09T10:44:54.980Z,1.70
2023-05-09T10:47:22.690Z,1.80
2023-05-09T10:49:49.313Z,1.80
2023-05-09T10:52:16.841Z,1.80
2023-05-09T10:54:43.434Z,1.60
2023-05-09T10:57:10.200Z,1.70
2023-05-09T10:59:37.380Z,1.70
2023-05-09T11:02:04.465Z,1.95
2023-05-09T11:04:31.991Z,1.90
2023-05-09T11:06:58.677Z,1.75
2023-05-09T11:09:27.990Z,1.80
2023-05-09T11:11:54.895Z,1.92
2023-05-09T11:14:21.619Z,2.10
2023-05-09T11:16:51.185Z,1.80
2023-05-09T11:19:17.797Z,1.80
2023-05-09T11:21:44.485Z,1.90
2023-05-09T11:24:11.246Z,1.70
2023-05-09T11:26:38.608Z,1.80
2023-05-09T11:29:05.479Z,1.90
2023-05-09T11:31:32.156Z,2.20
2023-05-09T11:34:00.200Z,2.08
2023-05-09T11:36:29.294Z,2.10
2023-05-09T11:38:56.099Z,1.95
2023-05-09T11:41:22.823Z,1.83
2023-05-09T11:43:49.430Z,1.83
2023-05-09T11:46:16.241Z,1.90
2023-05-09T11:48:43.045Z,1.80
2023-05-09T11:51:09.691Z,2.33
2023-05-09T11:53:36.403Z,2.40
2023-05-09T11:56:03.120Z,2.08
2023-05-09T11:58:29.728Z,1.90
2023-05-09T12:00:56.423Z,2.30
2023-05-09T12:03:23.200Z,1.73
2023-05-09T12:05:49.949Z,1.90
2023-05-09T12:08:16.662Z,2.05
2023-05-09T12:10:43.410Z,1.70
2023-05-09T12:13:10.140Z,2.03
2023-05-09T12:15:38.037Z,1.70
2023-05-09T12:18:05.048Z,2.10
2023-05-09T12:20:31.867Z,1.95
2023-05-09T12:22:58.448Z,1.95
2023-05-09T12:25:25.063Z,2.22
2023-05-09T12:27:54.498Z,2.47
2023-05-09T12:30:21.414Z,2.70
2023-05-09T12:32:48.313Z,1.90
2023-05-09T12:35:16.282Z,2.65
2023-05-09T12:37:43.307Z,2.40
2023-05-09T12:40:12.236Z,2.20
2023-05-09T12:42:38.968Z,2.13
2023-05-09T12:45:05.632Z,2.15
2023-05-09T12:47:32.430Z,2.25
2023-05-09T12:49:59.162Z,2.05
2023-05-09T12:52:25.896Z,2.45
2023-05-09T12:54:52.507Z,1.92
2023-05-09T12:57:19.155Z,2.50
2023-05-09T12:59:45.799Z,2.60
2023-05-09T13:02:12.464Z,2.28
2023-05-09T13:04:39.150Z,2.33
2023-05-09T13:07:26.778Z,2.63
2023-05-09T13:09:53.454Z,2.90
2023-05-09T13:12:20.590Z,2.38
2023-05-09T13:14:47.301Z,2.53
2023-05-09T13:17:34.154Z,2.50
2023-05-09T13:20:00.802Z,2.95
2023-05-09T13:22:27.404Z,2.70
2023-05-09T13:24:54.063Z,2.33
2023-05-09T13:27:21.822Z,3.08
2023-05-09T13:29:48.495Z,2.53
2023-05-09T13:32:17.007Z,2.85
2023-05-09T13:34:43.659Z,2.63
2023-05-09T13:37:11.714Z,2.55
2023-05-09T13:39:38.558Z,2.22
2023-05-09T13:42:05.245Z,2.80
2023-05-09T13:44:31.951Z,2.47
2023-05-09T13:47:17.731Z,2.53
2023-05-09T13:49:44.394Z,2.50
2023-05-09T13:52:11.099Z,2.75
2023-05-09T13:54:37.750Z,2.67
2023-05-09T13:57:24.406Z,2.70
2023-05-09T13:59:51.070Z,2.67
2023-05-09T14:02:18.844Z,2.67
2023-05-09T14:04:45.474Z,2.40
2023-05-09T14:10:16.146Z,2.20
2023-05-09T14:12:44.584Z,2.53
2023-05-09T14:15:11.406Z,2.00
2023-05-09T14:17:40.234Z,1.98
2023-05-09T14:20:06.913Z,2.33
2023-05-09T14:22:33.618Z,2.20
2023-05-09T14:25:00.272Z,2.45
2023-05-09T14:27:27.344Z,2.40
2023-05-09T14:29:53.934Z,2.45
2023-05-09T14:32:21.085Z,2.10
2023-05-09T14:34:49.751Z,2.20
2023-05-09T14:37:35.696Z,2.20
2023-05-09T14:40:05.779Z,2.63
2023-05-09T14:42:32.795Z,2.40
2023-05-09T14:44:59.408Z,2.28
2023-05-09T14:47:27.285Z,2.25
2023-05-09T14:49:54.018Z,2.40
2023-05-09T14:52:20.814Z,2.55
2023-05-09T14:54:47.476Z,1.90
2023-05-09T14:57:14.287Z,1.75
2023-05-09T14:59:40.977Z,2.17
2023-05-09T15:02:07.674Z,2.67
2023-05-09T15:04:36.914Z,2.60
2023-05-09T15:07:06.002Z,2.10
2023-05-09T15:09:32.642Z,2.00
2023-05-09T15:11:59.277Z,2.30
2023-05-09T15:14:26.249Z,2.60
2023-05-09T15:16:53.983Z,3.10
2023-05-09T15:19:22.527Z,2.78
2023-05-09T15:21:49.262Z,2.45
2023-05-09T15:24:16.288Z,2.35
2023-05-09T15:26:44.295Z,2.63
2023-05-09T15:29:11.139Z,2.92
2023-05-09T15:31:37.894Z,2.58
2023-05-09T15:34:04.669Z,2.40
2023-05-09T15:36:32.205Z,2.28
2023-05-09T15:38:58.925Z,2.20
2023-05-09T15:41:25.594Z,2.10
2023-05-09T15:43:52.434Z,2.30
2023-05-09T15:46:21.791Z,2.42
2023-05-09T15:48:48.434Z,2.40
2023-05-09T15:51:15.053Z,1.92
2023-05-09T15:53:41.682Z,2.20
2023-05-09T15:56:28.375Z,2.55
2023-05-09T15:58:55.031Z,2.10
2023-05-09T16:01:21.785Z,1.90
2023-05-09T16:03:48.550Z,1.92
2023-05-09T16:06:18.471Z,1.67
2023-05-09T16:08:46.460Z,1.80
2023-05-09T16:11:13.056Z,2.00
2023-05-09T16:13:39.779Z,1.50
2023-05-09T16:16:07.769Z,1.70
2023-05-09T16:18:34.454Z,2.00
2023-05-09T16:21:01.335Z,1.77
2023-05-09T16:23:27.975Z,1.90
2023-05-09T16:25:56.676Z,1.50
2023-05-09T16:28:24.530Z,1.60
2023-05-09T16:30:51.468Z,1.50
2023-05-09T16:33:18.515Z,1.30
2023-05-09T16:36:05.168Z,1.67
2023-05-09T16:38:31.950Z,1.38
2023-05-09T16:40:58.613Z,1.42
2023-05-09T16:43:25.652Z,1.80
2023-05-09T16:45:53.358Z,1.73
2023-05-09T16:48:20.015Z,1.48
2023-05-09T16:50:47.992Z,1.63
2023-05-09T16:53:15.452Z,2.00
2023-05-09T16:55:43.248Z,1.60
2023-05-09T16:58:10.038Z,1.80
2023-05-09T17:00:36.667Z,1.90
2023-05-09T17:03:03.357Z,1.95
2023-05-09T17:05:30.011Z,1.70
2023-05-09T17:07:56.834Z,2.15
2023-05-09T17:10:23.603Z,2.22
2023-05-09T17:12:50.817Z,1.98
2023-05-09T17:15:17.588Z,1.98
2023-05-09T17:18:03.297Z,1.90
2023-05-09T17:20:30.073Z,1.63
2023-05-09T17:22:56.841Z,2.03
2023-05-09T17:25:24.809Z,2.20
2023-05-09T17:27:51.410Z,1.98
2023-05-09T17:30:19.866Z,2.10
2023-05-09T17:32:48.152Z,1.67
2023-05-09T17:35:15.025Z,1.77
2023-05-09T17:38:00.702Z,2.10
2023-05-09T17:40:27.385Z,1.98
2023-05-09T17:42:54.129Z,1.85
2023-05-09T17:45:20.942Z,1.70
2023-05-09T17:47:47.632Z,3.47
2023-05-09T17:50:16.990Z,2.80
2023-05-09T17:52:43.925Z,2.00
2023-05-09T17:55:11.232Z,2.15
2023-05-09T17:57:40.765Z,2.10
2023-05-09T18:00:09.261Z,2.17
2023-05-09T18:02:41.734Z,2.17
2023-05-09T18:05:08.397Z,2.30
2023-05-09T18:07:36.150Z,2.30
2023-05-09T18:10:02.748Z,2.08
2023-05-09T18:12:31.271Z,2.15
2023-05-09T18:14:57.919Z,1.48
2023-05-09T18:17:25.770Z,1.50
2023-05-09T18:19:52.408Z,1.38
2023-05-09T18:22:19.384Z,1.25
2023-05-09T18:24:46.179Z,1.38
2023-05-09T18:27:13.037Z,1.50
2023-05-09T18:29:39.707Z,1.77
2023-05-09T18:32:07.003Z,1.50
2023-05-09T18:34:33.775Z,1.73
2023-05-09T18:37:00.639Z,1.42
2023-05-09T18:39:27.406Z,1.42
2023-05-09T18:41:54.310Z,1.65
2023-05-09T18:44:21.096Z,1.75
2023-05-09T18:46:47.789Z,1.40
2023-05-09T18:49:14.498Z,1.73
2023-05-09T18:51:41.122Z,1.40
2023-05-09T18:54:08.131Z,1.70
2023-05-09T18:56:39.219Z,2.00
2023-05-09T18:59:06.483Z,1.73
2023-05-09T19:01:33.190Z,1.30
2023-05-09T19:04:01.702Z,1.50
2023-05-09T19:06:29.080Z,1.50
2023-05-09T19:08:55.847Z,1.40
2023-05-09T19:11:22.488Z,1.17
2023-05-09T19:13:49.495Z,1.58
2023-05-09T19:16:35.098Z,1.20
2023-05-09T19:19:01.754Z,1.45
2023-05-09T19:21:28.968Z,1.50
2023-05-09T19:23:55.702Z,1.50
2023-05-09T19:26:23.418Z,1.90
2023-05-09T19:28:50.094Z,1.45
2023-05-09T19:31:20.653Z,2.40
2023-05-09T19:33:50.458Z,2.53
2023-05-09T19:36:37.122Z,2.25
2023-05-09T19:39:05.424Z,1.90
2023-05-09T19:41:32.158Z,2.00
2023-05-09T19:43:59.802Z,1.80
2023-05-09T19:46:26.640Z,1.50
2023-05-09T19:48:53.799Z,1.98
2023-05-09T19:51:20.370Z,1.92
2023-05-09T19:53:47.010Z,1.92
2023-05-09T19:56:14.728Z,1.67
2023-05-09T19:58:41.417Z,1.77
2023-05-09T20:01:08.090Z,1.55
2023-05-09T20:03:38.775Z,1.88
2023-05-09T20:06:05.866Z,1.77
2023-05-09T20:08:32.569Z,1.77
2023-05-09T20:11:00.101Z,1.92
2023-05-09T20:13:27.483Z,1.70
2023-05-09T20:18:59.544Z,1.80
2023-05-09T20:21:27.647Z,1.73
2023-05-09T20:23:54.319Z,1.80
2023-05-09T20:26:25.097Z,2.40
2023-05-09T20:28:54.375Z,2.50
2023-05-09T20:31:21.021Z,2.65
2023-05-09T20:33:47.664Z,2.00
2023-05-09T20:36:15.409Z,2.35
2023-05-09T20:38:42.003Z,2.00
2023-05-09T20:41:08.636Z,2.17
2023-05-09T20:43:35.467Z,2.00
2023-05-09T20:46:04.351Z,1.80
2023-05-09T20:48:31.248Z,1.80
2023-05-09T20:50:57.899Z,1.70
2023-05-09T20:53:26.506Z,1.98
2023-05-09T20:55:54.166Z,2.42
2023-05-09T20:58:20.776Z,2.38
2023-05-09T21:00:47.718Z,2.40
2023-05-09T21:03:14.546Z,2.03
2023-05-09T21:05:43.467Z,2.13
2023-05-09T21:08:10.182Z,2.35
2023-05-09T21:10:36.826Z,2.50
2023-05-09T21:13:04.670Z,2.60
2023-05-09T21:15:31.570Z,2.38
2023-05-09T21:17:58.240Z,2.53
2023-05-09T21:20:24.901Z,2.13
2023-05-09T21:22:51.506Z,2.20
2023-05-09T21:25:18.232Z,2.10
2023-05-09T21:27:44.962Z,2.25
2023-05-09T21:30:11.551Z,2.30
2023-05-09T21:32:38.423Z,2.17
2023-05-09T21:35:07.277Z,2.15
2023-05-09T21:37:35.088Z,2.20
2023-05-09T21:40:04.883Z,2.30
2023-05-09T21:42:32.338Z,2.15
2023-05-09T21:44:58.949Z,2.03
2023-05-09T21:47:28.000Z,2.30
2023-05-09T21:49:54.867Z,2.25
2023-05-09T21:52:23.498Z,2.22
2023-05-09T21:54:50.121Z,2.28
2023-05-09T21:57:16.954Z,2.30
2023-05-09T21:59:44.202Z,2.47
2023-05-09T22:02:11.588Z,2.42
2023-05-09T22:04:40.090Z,2.38
2023-05-09T22:07:06.868Z,2.40
2023-05-09T22:09:33.489Z,2.70
2023-05-09T22:12:00.141Z,2.50
2023-05-09T22:14:26.986Z,2.30
2023-05-09T22:17:14.654Z,2.00
2023-05-09T22:19:41.249Z,2.13
2023-05-09T22:22:07.801Z,2.28
2023-05-09T22:24:34.466Z,2.03
2023-05-09T22:27:02.150Z,2.03
2023-05-09T22:29:28.889Z,1.90
2023-05-09T22:31:55.575Z,1.92
2023-05-09T22:34:22.552Z,2.47
2023-05-09T22:36:49.460Z,2.10
2023-05-09T22:39:16.533Z,1.95
2023-05-09T22:41:43.268Z,1.98
2023-05-09T22:44:09.838Z,1.90
2023-05-09T22:46:36.500Z,2.42
2023-05-09T22:49:03.164Z,2.40
2023-05-09T22:51:29.808Z,2.38
2023-05-09T22:53:56.791Z,2.47
2023-05-09T22:56:23.581Z,2.50
2023-05-09T22:58:50.264Z,2.80
2023-05-09T23:01:16.881Z,2.88
2023-05-09T23:03:43.560Z,3.15
2023-05-09T23:06:11.439Z,3.72
2023-05-09T23:08:38.045Z,3.83
2023-05-09T23:11:04.854Z,3.53
2023-05-09T23:13:31.593Z,3.78
2023-05-09T23:15:58.489Z,4.10
2023-05-09T23:18:25.706Z,3.97
2023-05-09T23:20:52.379Z,3.67
2023-05-09T23:23:18.955Z,4.35
2023-05-09T23:25:47.766Z,3.90
2023-05-09T23:28:14.358Z,3.20
2023-05-09T23:30:40.922Z,3.55
2023-05-09T23:33:07.558Z,3.20
2023-05-09T23:35:35.984Z,3.28
2023-05-09T23:38:04.344Z,2.92
2023-05-09T23:40:31.275Z,2.65
2023-05-09T23:42:57.980Z,2.83
2023-05-09T23:45:24.574Z,2.75
2023-05-09T23:47:51.179Z,3.00
2023-05-09T23:50:18.052Z,2.70
2023-05-09T23:52:44.915Z,2.45
2023-05-09T23:55:11.550Z,2.10
2023-05-09T23:57:39.467Z,2.42
